sensor_id;sensor_type;location;lat;lon;timestamp;P1;durP1;ratioP1;P2;durP2;ratioP2
11447;SDS011;43755;49.736;8.734;2023-02-01T00:00:39;8.25;;;7.40;;
11447;SDS011;43755;49.736;8.734;2023-02-01T00:02:40;9.65;;;7.80;;
11447;SDS011;43755;49.736;8.734;2023-02-01T00:04:42;8.00;;;7.20;;
11447;SDS011;43755;49.736;8.734;2023-02-01T00:06:43;8.40;;;7.18;;
11447;SDS011;43755;49.736;8.734;2023-02-01T00:08:44;8.18;;;7.38;;
11447;SDS011;43755;49.736;8.734;2023-02-01T00:10:47;7.57;;;6.78;;
11447;SDS011;43755;49.736;8.734;2023-02-01T00:12:49;8.85;;;7.00;;
11447;SDS011;43755;49.736;8.734;2023-02-01T00:14:50;8.88;;;7.30;;
11447;SDS011;43755;49.736;8.734;2023-02-01T00:16:52;8.38;;;7.43;;
11447;SDS011;43755;49.736;8.734;2023-02-01T00:18:56;7.53;;;6.82;;
11447;SDS011;43755;49.736;8.734;2023-02-01T00:20:59;7.70;;;6.93;;
11447;SDS011;43755;49.736;8.734;2023-02-01T00:23:01;8.50;;;7.50;;
11447;SDS011;43755;49.736;8.734;2023-02-01T00:25:02;8.15;;;7.45;;
11447;SDS011;43755;49.736;8.734;2023-02-01T00:27:05;8.77;;;7.30;;
11447;SDS011;43755;49.736;8.734;2023-02-01T00:29:10;7.90;;;7.10;;
11447;SDS011;43755;49.736;8.734;2023-02-01T00:31:13;8.45;;;7.47;;
11447;SDS011;43755;49.736;8.734;2023-02-01T00:33:15;9.18;;;7.68;;
11447;SDS011;43755;49.736;8.734;2023-02-01T00:35:16;8.23;;;7.38;;
11447;SDS011;43755;49.736;8.734;2023-02-01T00:37:17;8.60;;;7.65;;
11447;SDS011;43755;49.736;8.734;2023-02-01T00:39:19;8.43;;;7.63;;
11447;SDS011;43755;49.736;8.734;2023-02-01T00:41:20;11.65;;;8.60;;
11447;SDS011;43755;49.736;8.734;2023-02-01T00:43:24;8.98;;;7.85;;
11447;SDS011;43755;49.736;8.734;2023-02-01T00:45:25;9.23;;;8.40;;
11447;SDS011;43755;49.736;8.734;2023-02-01T00:47:27;8.82;;;7.68;;
11447;SDS011;43755;49.736;8.734;2023-02-01T00:49:28;8.70;;;7.85;;
11447;SDS011;43755;49.736;8.734;2023-02-01T00:51:29;9.65;;;7.50;;
11447;SDS011;43755;49.736;8.734;2023-02-01T00:53:31;9.25;;;8.02;;
11447;SDS011;43755;49.736;8.734;2023-02-01T00:55:33;9.93;;;7.57;;
11447;SDS011;43755;49.736;8.734;2023-02-01T00:57:35;9.13;;;7.75;;
11447;SDS011;43755;49.736;8.734;2023-02-01T00:59:38;11.63;;;7.70;;
11447;SDS011;43755;49.736;8.734;2023-02-01T01:01:39;10.60;;;7.90;;
11447;SDS011;43755;49.736;8.734;2023-02-01T01:03:42;8.45;;;7.75;;
11447;SDS011;43755;49.736;8.734;2023-02-01T01:05:44;10.30;;;7.47;;
11447;SDS011;43755;49.736;8.734;2023-02-01T01:07:45;11.00;;;8.02;;
11447;SDS011;43755;49.736;8.734;2023-02-01T01:09:47;8.02;;;7.22;;
11447;SDS011;43755;49.736;8.734;2023-02-01T01:11:48;9.77;;;7.80;;
11447;SDS011;43755;49.736;8.734;2023-02-01T01:13:51;8.15;;;7.40;;
11447;SDS011;43755;49.736;8.734;2023-02-01T01:15:54;9.88;;;8.45;;
11447;SDS011;43755;49.736;8.734;2023-02-01T01:17:56;10.13;;;8.93;;
11447;SDS011;43755;49.736;8.734;2023-02-01T01:19:57;9.23;;;8.23;;
11447;SDS011;43755;49.736;8.734;2023-02-01T01:21:59;8.52;;;7.63;;
11447;SDS011;43755;49.736;8.734;2023-02-01T01:24:00;11.15;;;8.25;;
11447;SDS011;43755;49.736;8.734;2023-02-01T01:26:04;8.15;;;7.35;;
11447;SDS011;43755;49.736;8.734;2023-02-01T01:28:06;9.40;;;8.05;;
11447;SDS011;43755;49.736;8.734;2023-02-01T01:30:08;9.93;;;8.48;;
11447;SDS011;43755;49.736;8.734;2023-02-01T01:32:12;9.65;;;8.18;;
11447;SDS011;43755;49.736;8.734;2023-02-01T01:34:13;9.35;;;7.88;;
11447;SDS011;43755;49.736;8.734;2023-02-01T01:36:15;10.55;;;8.85;;
11447;SDS011;43755;49.736;8.734;2023-02-01T01:38:16;9.70;;;8.10;;
11447;SDS011;43755;49.736;8.734;2023-02-01T01:40:18;10.38;;;8.27;;
11447;SDS011;43755;49.736;8.734;2023-02-01T01:42:19;8.68;;;7.88;;
11447;SDS011;43755;49.736;8.734;2023-02-01T01:47:03;11.82;;;8.43;;
11447;SDS011;43755;49.736;8.734;2023-02-01T01:49:07;9.80;;;8.02;;
11447;SDS011;43755;49.736;8.734;2023-02-01T01:51:11;12.50;;;8.35;;
11447;SDS011;43755;49.736;8.734;2023-02-01T01:53:15;12.10;;;8.32;;
11447;SDS011;43755;49.736;8.734;2023-02-01T01:55:19;12.15;;;8.48;;
11447;SDS011;43755;49.736;8.734;2023-02-01T01:57:23;11.60;;;8.00;;
11447;SDS011;43755;49.736;8.734;2023-02-01T01:59:27;8.88;;;7.85;;
11447;SDS011;43755;49.736;8.734;2023-02-01T02:01:32;9.90;;;8.15;;
11447;SDS011;43755;49.736;8.734;2023-02-01T02:03:34;11.60;;;8.70;;
11447;SDS011;43755;49.736;8.734;2023-02-01T02:05:39;11.82;;;8.77;;
11447;SDS011;43755;49.736;8.734;2023-02-01T02:07:41;10.82;;;9.27;;
11447;SDS011;43755;49.736;8.734;2023-02-01T02:09:46;12.18;;;9.52;;
11447;SDS011;43755;49.736;8.734;2023-02-01T02:11:47;11.13;;;8.82;;
11447;SDS011;43755;49.736;8.734;2023-02-01T02:13:50;10.15;;;9.15;;
11447;SDS011;43755;49.736;8.734;2023-02-01T02:15:58;10.60;;;9.15;;
11447;SDS011;43755;49.736;8.734;2023-02-01T02:18:07;10.88;;;9.77;;
11447;SDS011;43755;49.736;8.734;2023-02-01T02:25:39;11.15;;;9.65;;
11447;SDS011;43755;49.736;8.734;2023-02-01T02:28:00;11.52;;;9.77;;
11447;SDS011;43755;49.736;8.734;2023-02-01T02:32:51;10.93;;;9.43;;
11447;SDS011;43755;49.736;8.734;2023-02-01T02:35:17;11.52;;;9.85;;
11447;SDS011;43755;49.736;8.734;2023-02-01T02:37:31;10.55;;;9.52;;
11447;SDS011;43755;49.736;8.734;2023-02-01T02:39:41;10.40;;;9.30;;
11447;SDS011;43755;49.736;8.734;2023-02-01T02:41:54;10.50;;;9.35;;
11447;SDS011;43755;49.736;8.734;2023-02-01T02:44:21;10.40;;;9.32;;
11447;SDS011;43755;49.736;8.734;2023-02-01T02:46:48;10.85;;;9.20;;
11447;SDS011;43755;49.736;8.734;2023-02-01T02:49:10;12.35;;;9.75;;
11447;SDS011;43755;49.736;8.734;2023-02-01T02:51:19;10.38;;;9.35;;
11447;SDS011;43755;49.736;8.734;2023-02-01T02:53:43;11.95;;;9.77;;
11447;SDS011;43755;49.736;8.734;2023-02-01T02:56:08;10.23;;;9.23;;
11447;SDS011;43755;49.736;8.734;2023-02-01T02:58:29;12.55;;;9.60;;
11447;SDS011;43755;49.736;8.734;2023-02-01T03:00:48;10.10;;;9.02;;
11447;SDS011;43755;49.736;8.734;2023-02-01T03:03:08;10.63;;;9.52;;
11447;SDS011;43755;49.736;8.734;2023-02-01T03:05:31;11.38;;;9.57;;
11447;SDS011;43755;49.736;8.734;2023-02-01T03:07:49;10.13;;;9.00;;
11447;SDS011;43755;49.736;8.734;2023-02-01T03:09:57;9.48;;;8.50;;
11447;SDS011;43755;49.736;8.734;2023-02-01T03:12:06;9.63;;;7.90;;
11447;SDS011;43755;49.736;8.734;2023-02-01T03:14:30;10.30;;;9.30;;
11447;SDS011;43755;49.736;8.734;2023-02-01T03:16:38;10.73;;;9.10;;
11447;SDS011;43755;49.736;8.734;2023-02-01T03:18:45;10.98;;;9.85;;
11447;SDS011;43755;49.736;8.734;2023-02-01T03:20:51;13.43;;;9.60;;
11447;SDS011;43755;49.736;8.734;2023-02-01T03:22:57;11.30;;;9.38;;
11447;SDS011;43755;49.736;8.734;2023-02-01T03:25:01;10.35;;;8.93;;
11447;SDS011;43755;49.736;8.734;2023-02-01T03:27:07;10.57;;;9.18;;
11447;SDS011;43755;49.736;8.734;2023-02-01T03:29:14;9.98;;;8.98;;
11447;SDS011;43755;49.736;8.734;2023-02-01T03:31:21;9.65;;;8.75;;
11447;SDS011;43755;49.736;8.734;2023-02-01T03:33:23;10.73;;;9.23;;
11447;SDS011;43755;49.736;8.734;2023-02-01T03:35:28;12.23;;;9.27;;
11447;SDS011;43755;49.736;8.734;2023-02-01T03:37:33;11.85;;;9.05;;
11447;SDS011;43755;49.736;8.734;2023-02-01T03:39:38;10.90;;;9.80;;
11447;SDS011;43755;49.736;8.734;2023-02-01T03:41:43;11.13;;;9.85;;
11447;SDS011;43755;49.736;8.734;2023-02-01T03:43:51;11.10;;;9.80;;
11447;SDS011;43755;49.736;8.734;2023-02-01T03:45:57;10.82;;;9.73;;
11447;SDS011;43755;49.736;8.734;2023-02-01T03:48:01;10.80;;;9.52;;
11447;SDS011;43755;49.736;8.734;2023-02-01T03:50:05;10.38;;;9.38;;
11447;SDS011;43755;49.736;8.734;2023-02-01T03:52:09;9.35;;;8.40;;
11447;SDS011;43755;49.736;8.734;2023-02-01T03:54:14;8.60;;;7.70;;
11447;SDS011;43755;49.736;8.734;2023-02-01T03:56:19;10.68;;;8.50;;
11447;SDS011;43755;49.736;8.734;2023-02-01T03:58:24;10.35;;;6.97;;
11447;SDS011;43755;49.736;8.734;2023-02-01T04:00:25;11.95;;;7.28;;
11447;SDS011;43755;49.736;8.734;2023-02-01T04:02:27;8.02;;;7.15;;
11447;SDS011;43755;49.736;8.734;2023-02-01T04:04:29;7.57;;;6.88;;
11447;SDS011;43755;49.736;8.734;2023-02-01T04:06:30;9.02;;;7.07;;
11447;SDS011;43755;49.736;8.734;2023-02-01T04:08:32;7.22;;;6.10;;
11447;SDS011;43755;49.736;8.734;2023-02-01T04:10:33;7.30;;;5.78;;
11447;SDS011;43755;49.736;8.734;2023-02-01T04:12:36;5.57;;;4.93;;
11447;SDS011;43755;49.736;8.734;2023-02-01T04:14:37;6.25;;;4.95;;
11447;SDS011;43755;49.736;8.734;2023-02-01T04:16:38;6.72;;;5.22;;
11447;SDS011;43755;49.736;8.734;2023-02-01T04:18:40;7.07;;;6.03;;
11447;SDS011;43755;49.736;8.734;2023-02-01T04:20:42;8.85;;;6.97;;
11447;SDS011;43755;49.736;8.734;2023-02-01T04:22:44;8.52;;;7.68;;
11447;SDS011;43755;49.736;8.734;2023-02-01T04:24:45;11.57;;;8.25;;
11447;SDS011;43755;49.736;8.734;2023-02-01T04:26:47;10.50;;;9.07;;
11447;SDS011;43755;49.736;8.734;2023-02-01T04:28:49;11.38;;;9.23;;
11447;SDS011;43755;49.736;8.734;2023-02-01T04:30:52;13.43;;;9.85;;
11447;SDS011;43755;49.736;8.734;2023-02-01T04:32:54;10.90;;;9.18;;
11447;SDS011;43755;49.736;8.734;2023-02-01T04:34:55;12.73;;;9.45;;
11447;SDS011;43755;49.736;8.734;2023-02-01T04:36:56;11.52;;;9.75;;
11447;SDS011;43755;49.736;8.734;2023-02-01T04:38:58;11.27;;;9.98;;
11447;SDS011;43755;49.736;8.734;2023-02-01T04:40:59;14.63;;;10.40;;
11447;SDS011;43755;49.736;8.734;2023-02-01T04:43:01;11.95;;;9.98;;
11447;SDS011;43755;49.736;8.734;2023-02-01T04:45:05;10.13;;;9.10;;
11447;SDS011;43755;49.736;8.734;2023-02-01T04:47:08;12.48;;;9.90;;
11447;SDS011;43755;49.736;8.734;2023-02-01T04:49:10;14.00;;;10.05;;
11447;SDS011;43755;49.736;8.734;2023-02-01T04:51:12;13.00;;;10.13;;
11447;SDS011;43755;49.736;8.734;2023-02-01T04:53:15;14.13;;;10.02;;
11447;SDS011;43755;49.736;8.734;2023-02-01T04:55:17;14.38;;;10.40;;
11447;SDS011;43755;49.736;8.734;2023-02-01T04:57:18;13.27;;;10.63;;
11447;SDS011;43755;49.736;8.734;2023-02-01T04:59:19;15.65;;;10.80;;
11447;SDS011;43755;49.736;8.734;2023-02-01T05:01:22;12.75;;;9.48;;
11447;SDS011;43755;49.736;8.734;2023-02-01T05:03:25;13.05;;;10.45;;
11447;SDS011;43755;49.736;8.734;2023-02-01T05:05:26;11.60;;;10.50;;
11447;SDS011;43755;49.736;8.734;2023-02-01T05:07:28;11.40;;;10.02;;
11447;SDS011;43755;49.736;8.734;2023-02-01T05:09:29;12.80;;;10.00;;
11447;SDS011;43755;49.736;8.734;2023-02-01T05:11:31;11.70;;;10.05;;
11447;SDS011;43755;49.736;8.734;2023-02-01T05:13:50;13.98;;;10.07;;
11447;SDS011;43755;49.736;8.734;2023-02-01T05:15:51;14.30;;;9.85;;
11447;SDS011;43755;49.736;8.734;2023-02-01T05:17:54;12.57;;;9.68;;
11447;SDS011;43755;49.736;8.734;2023-02-01T05:19:55;13.23;;;9.52;;
11447;SDS011;43755;49.736;8.734;2023-02-01T05:21:57;13.48;;;8.88;;
11447;SDS011;43755;49.736;8.734;2023-02-01T05:23:58;11.52;;;9.45;;
11447;SDS011;43755;49.736;8.734;2023-02-01T05:26:13;15.20;;;9.20;;
11447;SDS011;43755;49.736;8.734;2023-02-01T05:28:14;11.95;;;8.45;;
11447;SDS011;43755;49.736;8.734;2023-02-01T05:30:16;11.27;;;8.70;;
11447;SDS011;43755;49.736;8.734;2023-02-01T05:32:17;13.82;;;8.00;;
11447;SDS011;43755;49.736;8.734;2023-02-01T05:34:20;11.20;;;7.60;;
11447;SDS011;43755;49.736;8.734;2023-02-01T05:36:21;14.50;;;6.20;;
11447;SDS011;43755;49.736;8.734;2023-02-01T05:38:23;9.80;;;5.85;;
11447;SDS011;43755;49.736;8.734;2023-02-01T05:40:24;13.75;;;5.68;;
11447;SDS011;43755;49.736;8.734;2023-02-01T05:42:26;9.70;;;4.82;;
11447;SDS011;43755;49.736;8.734;2023-02-01T05:44:27;7.63;;;4.35;;
11447;SDS011;43755;49.736;8.734;2023-02-01T05:46:29;5.43;;;3.70;;
11447;SDS011;43755;49.736;8.734;2023-02-01T05:48:30;3.70;;;3.25;;
11447;SDS011;43755;49.736;8.734;2023-02-01T05:50:33;3.88;;;2.60;;
11447;SDS011;43755;49.736;8.734;2023-02-01T05:52:34;5.30;;;3.00;;
11447;SDS011;43755;49.736;8.734;2023-02-01T05:54:36;5.20;;;2.80;;
11447;SDS011;43755;49.736;8.734;2023-02-01T05:56:37;5.00;;;3.10;;
11447;SDS011;43755;49.736;8.734;2023-02-01T05:58:40;6.63;;;3.20;;
11447;SDS011;43755;49.736;8.734;2023-02-01T06:00:42;6.05;;;3.38;;
11447;SDS011;43755;49.736;8.734;2023-02-01T06:02:43;5.43;;;3.63;;
11447;SDS011;43755;49.736;8.734;2023-02-01T06:04:44;6.68;;;3.63;;
11447;SDS011;43755;49.736;8.734;2023-02-01T06:06:47;6.95;;;4.05;;
11447;SDS011;43755;49.736;8.734;2023-02-01T06:08:50;6.53;;;4.50;;
11447;SDS011;43755;49.736;8.734;2023-02-01T06:10:56;7.25;;;4.50;;
11447;SDS011;43755;49.736;8.734;2023-02-01T06:12:58;7.18;;;4.32;;
11447;SDS011;43755;49.736;8.734;2023-02-01T06:15:00;8.25;;;5.20;;
11447;SDS011;43755;49.736;8.734;2023-02-01T06:17:01;8.55;;;5.70;;
11447;SDS011;43755;49.736;8.734;2023-02-01T06:19:03;8.95;;;5.40;;
11447;SDS011;43755;49.736;8.734;2023-02-01T06:21:04;9.80;;;6.88;;
11447;SDS011;43755;49.736;8.734;2023-02-01T06:23:07;10.88;;;7.43;;
11447;SDS011;43755;49.736;8.734;2023-02-01T06:25:09;12.50;;;7.40;;
11447;SDS011;43755;49.736;8.734;2023-02-01T06:27:11;11.93;;;8.98;;
11447;SDS011;43755;49.736;8.734;2023-02-01T06:29:13;9.95;;;8.23;;
11447;SDS011;43755;49.736;8.734;2023-02-01T06:31:14;13.27;;;8.60;;
11447;SDS011;43755;49.736;8.734;2023-02-01T06:33:16;11.98;;;9.13;;
11447;SDS011;43755;49.736;8.734;2023-02-01T06:35:18;12.25;;;8.90;;
11447;SDS011;43755;49.736;8.734;2023-02-01T06:37:19;11.07;;;9.50;;
11447;SDS011;43755;49.736;8.734;2023-02-01T06:39:22;12.15;;;9.40;;
11447;SDS011;43755;49.736;8.734;2023-02-01T06:41:23;13.32;;;11.95;;
11447;SDS011;43755;49.736;8.734;2023-02-01T06:43:26;14.45;;;10.50;;
11447;SDS011;43755;49.736;8.734;2023-02-01T06:45:28;15.02;;;11.02;;
11447;SDS011;43755;49.736;8.734;2023-02-01T06:47:29;14.35;;;10.38;;
11447;SDS011;43755;49.736;8.734;2023-02-01T06:49:31;13.00;;;10.18;;
11447;SDS011;43755;49.736;8.734;2023-02-01T06:51:32;17.35;;;11.55;;
11447;SDS011;43755;49.736;8.734;2023-02-01T06:53:33;13.65;;;11.02;;
11447;SDS011;43755;49.736;8.734;2023-02-01T06:55:36;13.65;;;9.95;;
11447;SDS011;43755;49.736;8.734;2023-02-01T06:57:38;13.45;;;10.43;;
11447;SDS011;43755;49.736;8.734;2023-02-01T06:59:39;16.65;;;11.02;;
11447;SDS011;43755;49.736;8.734;2023-02-01T07:01:40;13.52;;;11.10;;
11447;SDS011;43755;49.736;8.734;2023-02-01T07:03:42;14.15;;;10.52;;
11447;SDS011;43755;49.736;8.734;2023-02-01T07:05:47;14.95;;;9.80;;
11447;SDS011;43755;49.736;8.734;2023-02-01T07:07:48;16.88;;;10.07;;
11447;SDS011;43755;49.736;8.734;2023-02-01T07:09:50;12.52;;;8.98;;
11447;SDS011;43755;49.736;8.734;2023-02-01T07:11:53;17.85;;;8.90;;
11447;SDS011;43755;49.736;8.734;2023-02-01T07:13:54;14.40;;;7.45;;
11447;SDS011;43755;49.736;8.734;2023-02-01T07:15:57;13.40;;;5.25;;
11447;SDS011;43755;49.736;8.734;2023-02-01T07:17:59;14.88;;;6.18;;
11447;SDS011;43755;49.736;8.734;2023-02-01T07:20:00;11.38;;;6.45;;
11447;SDS011;43755;49.736;8.734;2023-02-01T07:22:02;10.93;;;7.00;;
11447;SDS011;43755;49.736;8.734;2023-02-01T07:24:04;9.85;;;7.38;;
11447;SDS011;43755;49.736;8.734;2023-02-01T07:26:06;14.43;;;7.40;;
11447;SDS011;43755;49.736;8.734;2023-02-01T07:28:12;12.77;;;7.70;;
11447;SDS011;43755;49.736;8.734;2023-02-01T07:30:13;11.25;;;7.28;;
11447;SDS011;43755;49.736;8.734;2023-02-01T07:32:15;10.98;;;7.80;;
11447;SDS011;43755;49.736;8.734;2023-02-01T07:34:18;13.30;;;7.43;;
11447;SDS011;43755;49.736;8.734;2023-02-01T07:36:19;9.93;;;7.63;;
11447;SDS011;43755;49.736;8.734;2023-02-01T07:38:20;12.48;;;7.57;;
11447;SDS011;43755;49.736;8.734;2023-02-01T07:40:23;10.88;;;8.10;;
11447;SDS011;43755;49.736;8.734;2023-02-01T07:42:28;11.88;;;8.07;;
11447;SDS011;43755;49.736;8.734;2023-02-01T07:44:31;13.45;;;8.13;;
11447;SDS011;43755;49.736;8.734;2023-02-01T07:46:32;12.55;;;7.80;;
11447;SDS011;43755;49.736;8.734;2023-02-01T07:48:34;12.65;;;7.80;;
11447;SDS011;43755;49.736;8.734;2023-02-01T07:50:35;11.25;;;7.90;;
11447;SDS011;43755;49.736;8.734;2023-02-01T07:52:36;16.23;;;8.40;;
11447;SDS011;43755;49.736;8.734;2023-02-01T07:54:38;11.80;;;8.20;;
11447;SDS011;43755;49.736;8.734;2023-02-01T07:56:39;12.43;;;8.27;;
11447;SDS011;43755;49.736;8.734;2023-02-01T07:58:41;16.27;;;8.48;;
11447;SDS011;43755;49.736;8.734;2023-02-01T08:00:43;12.20;;;7.75;;
11447;SDS011;43755;49.736;8.734;2023-02-01T08:03:03;17.40;;;8.68;;
11447;SDS011;43755;49.736;8.734;2023-02-01T08:05:05;12.90;;;8.15;;
11447;SDS011;43755;49.736;8.734;2023-02-01T08:07:07;13.48;;;7.95;;
11447;SDS011;43755;49.736;8.734;2023-02-01T08:09:08;13.23;;;7.60;;
11447;SDS011;43755;49.736;8.734;2023-02-01T08:11:10;14.32;;;7.78;;
11447;SDS011;43755;49.736;8.734;2023-02-01T08:13:12;16.88;;;8.57;;
11447;SDS011;43755;49.736;8.734;2023-02-01T08:15:13;17.88;;;8.60;;
11447;SDS011;43755;49.736;8.734;2023-02-01T08:17:17;11.15;;;7.82;;
11447;SDS011;43755;49.736;8.734;2023-02-01T08:19:19;16.08;;;8.70;;
11447;SDS011;43755;49.736;8.734;2023-02-01T08:21:21;17.05;;;7.38;;
11447;SDS011;43755;49.736;8.734;2023-02-01T08:23:24;16.73;;;8.20;;
11447;SDS011;43755;49.736;8.734;2023-02-01T08:25:25;18.17;;;8.02;;
11447;SDS011;43755;49.736;8.734;2023-02-01T08:27:27;15.55;;;7.18;;
11447;SDS011;43755;49.736;8.734;2023-02-01T08:29:29;15.35;;;7.45;;
11447;SDS011;43755;49.736;8.734;2023-02-01T08:31:30;14.15;;;7.05;;
11447;SDS011;43755;49.736;8.734;2023-02-01T08:33:33;16.48;;;7.20;;
11447;SDS011;43755;49.736;8.734;2023-02-01T08:35:36;19.08;;;7.63;;
11447;SDS011;43755;49.736;8.734;2023-02-01T08:37:37;14.75;;;7.28;;
11447;SDS011;43755;49.736;8.734;2023-02-01T08:39:39;16.27;;;6.57;;
11447;SDS011;43755;49.736;8.734;2023-02-01T08:41:43;10.40;;;6.60;;
11447;SDS011;43755;49.736;8.734;2023-02-01T08:44:05;11.82;;;6.28;;
11447;SDS011;43755;49.736;8.734;2023-02-01T08:46:07;16.00;;;6.00;;
11447;SDS011;43755;49.736;8.734;2023-02-01T08:48:10;12.55;;;6.03;;
11447;SDS011;43755;49.736;8.734;2023-02-01T08:50:12;17.75;;;6.38;;
11447;SDS011;43755;49.736;8.734;2023-02-01T08:52:14;17.83;;;6.60;;
11447;SDS011;43755;49.736;8.734;2023-02-01T08:54:15;10.68;;;5.57;;
11447;SDS011;43755;49.736;8.734;2023-02-01T08:56:17;15.05;;;5.93;;
11447;SDS011;43755;49.736;8.734;2023-02-01T08:58:19;14.38;;;6.38;;
11447;SDS011;43755;49.736;8.734;2023-02-01T09:00:21;11.65;;;5.63;;
11447;SDS011;43755;49.736;8.734;2023-02-01T09:02:23;10.88;;;5.82;;
11447;SDS011;43755;49.736;8.734;2023-02-01T09:04:24;12.68;;;5.60;;
11447;SDS011;43755;49.736;8.734;2023-02-01T09:06:27;13.30;;;5.95;;
11447;SDS011;43755;49.736;8.734;2023-02-01T09:08:29;11.57;;;5.53;;
11447;SDS011;43755;49.736;8.734;2023-02-01T09:10:30;13.80;;;5.75;;
11447;SDS011;43755;49.736;8.734;2023-02-01T09:12:32;14.77;;;5.28;;
11447;SDS011;43755;49.736;8.734;2023-02-01T09:14:35;14.48;;;5.15;;
11447;SDS011;43755;49.736;8.734;2023-02-01T09:16:36;16.48;;;5.32;;
11447;SDS011;43755;49.736;8.734;2023-02-01T09:18:37;15.63;;;5.60;;
11447;SDS011;43755;49.736;8.734;2023-02-01T09:20:39;12.65;;;5.45;;
11447;SDS011;43755;49.736;8.734;2023-02-01T09:22:42;10.63;;;5.38;;
11447;SDS011;43755;49.736;8.734;2023-02-01T09:24:43;12.00;;;4.80;;
11447;SDS011;43755;49.736;8.734;2023-02-01T09:26:45;12.63;;;4.97;;
11447;SDS011;43755;49.736;8.734;2023-02-01T09:28:46;12.35;;;5.30;;
11447;SDS011;43755;49.736;8.734;2023-02-01T09:30:48;12.80;;;5.00;;
11447;SDS011;43755;49.736;8.734;2023-02-01T09:32:49;15.45;;;5.72;;
11447;SDS011;43755;49.736;8.734;2023-02-01T09:34:51;11.93;;;4.75;;
11447;SDS011;43755;49.736;8.734;2023-02-01T09:36:53;15.15;;;4.93;;
11447;SDS011;43755;49.736;8.734;2023-02-01T09:38:56;14.10;;;5.25;;
11447;SDS011;43755;49.736;8.734;2023-02-01T09:40:58;15.27;;;5.30;;
11447;SDS011;43755;49.736;8.734;2023-02-01T09:43:04;9.23;;;5.07;;
11447;SDS011;43755;49.736;8.734;2023-02-01T09:45:17;13.25;;;5.05;;
11447;SDS011;43755;49.736;8.734;2023-02-01T09:47:23;18.55;;;5.30;;
11447;SDS011;43755;49.736;8.734;2023-02-01T09:49:26;11.02;;;5.15;;
11447;SDS011;43755;49.736;8.734;2023-02-01T09:51:31;14.93;;;5.63;;
11447;SDS011;43755;49.736;8.734;2023-02-01T09:53:37;15.45;;;5.55;;
11447;SDS011;43755;49.736;8.734;2023-02-01T09:55:45;15.98;;;5.00;;
11447;SDS011;43755;49.736;8.734;2023-02-01T09:57:51;17.02;;;4.85;;
11447;SDS011;43755;49.736;8.734;2023-02-01T09:59:57;11.25;;;4.60;;
11447;SDS011;43755;49.736;8.734;2023-02-01T10:02:04;13.60;;;4.82;;
11447;SDS011;43755;49.736;8.734;2023-02-01T10:04:12;15.38;;;4.90;;
11447;SDS011;43755;49.736;8.734;2023-02-01T10:06:30;13.05;;;4.60;;
11447;SDS011;43755;49.736;8.734;2023-02-01T10:08:44;12.73;;;4.18;;
11447;SDS011;43755;49.736;8.734;2023-02-01T10:11:11;14.82;;;4.55;;
11447;SDS011;43755;49.736;8.734;2023-02-01T10:13:28;14.95;;;4.68;;
11447;SDS011;43755;49.736;8.734;2023-02-01T10:15:43;13.90;;;3.78;;
11447;SDS011;43755;49.736;8.734;2023-02-01T10:18:02;13.05;;;4.38;;
11447;SDS011;43755;49.736;8.734;2023-02-01T10:20:16;14.05;;;4.07;;
11447;SDS011;43755;49.736;8.734;2023-02-01T10:22:26;10.73;;;3.83;;
11447;SDS011;43755;49.736;8.734;2023-02-01T10:24:36;11.10;;;4.05;;
11447;SDS011;43755;49.736;8.734;2023-02-01T10:26:42;9.77;;;4.00;;
11447;SDS011;43755;49.736;8.734;2023-02-01T10:28:48;10.75;;;4.57;;
11447;SDS011;43755;49.736;8.734;2023-02-01T10:30:54;20.65;;;4.07;;
11447;SDS011;43755;49.736;8.734;2023-02-01T10:33:07;10.55;;;4.43;;
11447;SDS011;43755;49.736;8.734;2023-02-01T10:35:16;10.35;;;3.60;;
11447;SDS011;43755;49.736;8.734;2023-02-01T10:37:29;10.73;;;3.10;;
11447;SDS011;43755;49.736;8.734;2023-02-01T10:39:32;8.35;;;3.00;;
11447;SDS011;43755;49.736;8.734;2023-02-01T10:41:33;11.88;;;3.20;;
11447;SDS011;43755;49.736;8.734;2023-02-01T10:43:38;8.05;;;2.92;;
11447;SDS011;43755;49.736;8.734;2023-02-01T10:45:40;11.38;;;2.92;;
11447;SDS011;43755;49.736;8.734;2023-02-01T10:47:43;14.07;;;3.25;;
11447;SDS011;43755;49.736;8.734;2023-02-01T10:49:47;11.75;;;3.15;;
11447;SDS011;43755;49.736;8.734;2023-02-01T10:51:54;7.03;;;2.75;;
11447;SDS011;43755;49.736;8.734;2023-02-01T10:54:01;6.68;;;2.55;;
11447;SDS011;43755;49.736;8.734;2023-02-01T10:56:09;8.55;;;2.53;;
11447;SDS011;43755;49.736;8.734;2023-02-01T10:58:14;7.43;;;2.30;;
11447;SDS011;43755;49.736;8.734;2023-02-01T11:00:21;11.77;;;2.95;;
11447;SDS011;43755;49.736;8.734;2023-02-01T11:02:24;12.77;;;3.15;;
11447;SDS011;43755;49.736;8.734;2023-02-01T11:04:28;11.05;;;2.70;;
11447;SDS011;43755;49.736;8.734;2023-02-01T11:06:35;10.63;;;2.50;;
11447;SDS011;43755;49.736;8.734;2023-02-01T11:08:47;9.95;;;2.42;;
11447;SDS011;43755;49.736;8.734;2023-02-01T11:10:56;10.65;;;3.05;;
11447;SDS011;43755;49.736;8.734;2023-02-01T11:13:01;7.93;;;2.60;;
11447;SDS011;43755;49.736;8.734;2023-02-01T11:15:12;6.10;;;2.30;;
11447;SDS011;43755;49.736;8.734;2023-02-01T11:17:26;6.18;;;2.40;;
11447;SDS011;43755;49.736;8.734;2023-02-01T11:19:29;8.98;;;2.60;;
11447;SDS011;43755;49.736;8.734;2023-02-01T11:21:31;8.10;;;2.80;;
11447;SDS011;43755;49.736;8.734;2023-02-01T11:23:33;8.85;;;2.30;;
11447;SDS011;43755;49.736;8.734;2023-02-01T11:25:36;10.55;;;2.97;;
11447;SDS011;43755;49.736;8.734;2023-02-01T11:27:38;10.95;;;2.90;;
11447;SDS011;43755;49.736;8.734;2023-02-01T11:29:40;10.25;;;2.63;;
11447;SDS011;43755;49.736;8.734;2023-02-01T11:31:45;8.77;;;2.70;;
11447;SDS011;43755;49.736;8.734;2023-02-01T11:33:49;10.52;;;3.00;;
11447;SDS011;43755;49.736;8.734;2023-02-01T11:35:53;5.93;;;2.30;;
11447;SDS011;43755;49.736;8.734;2023-02-01T11:37:57;11.05;;;2.83;;
11447;SDS011;43755;49.736;8.734;2023-02-01T11:40:00;7.78;;;2.70;;
11447;SDS011;43755;49.736;8.734;2023-02-01T11:42:05;11.20;;;3.00;;
11447;SDS011;43755;49.736;8.734;2023-02-01T11:44:19;9.40;;;2.47;;
11447;SDS011;43755;49.736;8.734;2023-02-01T11:46:24;11.10;;;3.00;;
11447;SDS011;43755;49.736;8.734;2023-02-01T11:48:30;8.32;;;2.53;;
11447;SDS011;43755;49.736;8.734;2023-02-01T11:50:35;11.48;;;2.78;;
11447;SDS011;43755;49.736;8.734;2023-02-01T11:52:50;10.55;;;2.95;;
11447;SDS011;43755;49.736;8.734;2023-02-01T11:55:04;12.13;;;3.10;;
11447;SDS011;43755;49.736;8.734;2023-02-01T11:57:22;10.05;;;2.65;;
11447;SDS011;43755;49.736;8.734;2023-02-01T11:59:42;10.65;;;3.00;;
11447;SDS011;43755;49.736;8.734;2023-02-01T12:02:03;11.85;;;3.28;;
11447;SDS011;43755;49.736;8.734;2023-02-01T12:04:47;13.65;;;3.25;;
11447;SDS011;43755;49.736;8.734;2023-02-01T12:07:16;11.45;;;3.10;;
11447;SDS011;43755;49.736;8.734;2023-02-01T12:09:29;11.70;;;3.85;;
11447;SDS011;43755;49.736;8.734;2023-02-01T12:11:53;10.68;;;3.30;;
11447;SDS011;43755;49.736;8.734;2023-02-01T12:14:05;7.38;;;2.58;;
11447;SDS011;43755;49.736;8.734;2023-02-01T12:16:19;12.65;;;3.70;;
11447;SDS011;43755;49.736;8.734;2023-02-01T12:18:37;12.73;;;3.08;;
11447;SDS011;43755;49.736;8.734;2023-02-01T12:20:56;8.73;;;2.72;;
11447;SDS011;43755;49.736;8.734;2023-02-01T12:23:14;12.50;;;3.42;;
11447;SDS011;43755;49.736;8.734;2023-02-01T12:25:27;7.70;;;2.75;;
11447;SDS011;43755;49.736;8.734;2023-02-01T12:28:03;8.02;;;2.83;;
11447;SDS011;43755;49.736;8.734;2023-02-01T12:30:28;11.82;;;3.45;;
11447;SDS011;43755;49.736;8.734;2023-02-01T12:32:50;9.07;;;3.08;;
11447;SDS011;43755;49.736;8.734;2023-02-01T12:35:03;12.68;;;2.95;;
11447;SDS011;43755;49.736;8.734;2023-02-01T12:37:17;11.35;;;3.20;;